< < Back
Terminal Aerodrome Forecast


Current Version              Previous Versions:   1  2  3  4  5  6  7  8  9  

Terminal Aerodrome Forecast

357
FTUS42 KJAX 301727
TAFGNV
TAF
KGNV 301727Z 3018/3118 27006KT P6SM VCTS SCT050CB SCT250
      TEMPO 3018/3022 4SM -TSRA BKN035CB
     FM310200 VRB03KT P6SM FEW050 SCT250
      TEMPO 3109/3112 4SM BR
     FM311600 29006KT P6SM SCT050 SCT250=

Latest METAR

904
SAUS70 KWBC 310000 RRF
MTRGNV
METAR KGNV 302353Z 23006KT 10SM CLR 26/17 A2993 RMK AO2 LTG DSNT N AND
SE AND NW SLP133 T02560172 10339 20256 50016


USA.gov is the U.S. government's official web portal to all federal, state and local government web resources and services.